Entiat, WA

12:33 AM PDT on September 17, 2014 (GMT -0700)
KWAENTIA4 | Change Station
CLOSE
Current Station
Personal Weather Station
Location: Entiat, WA
Elevation: 1729 ft
Nearby Weather Stations

Elev 1729 ft 47.89 °N, 120.44 °W | Updated 4 seconds ago

Partly Cloudy
Partly Cloudy
52.9 °F
Feels Like 52.9 °F
N
0.0
Wind Variable Wind from SW
Gusts 0.0 mph

Today
High -- | Low -- °F
--% Chance of Precip.
Yesterday
High -- | Low -- °F
Precip. -- in
6:41 AM 7:09 PM
Last Quarter, 38% visible
Pressure 29.75 in
Visibility 10.0 miles
Clouds Clear
Dew Point 43 °F
Humidity 69%
Rainfall 0.00 in
Snow Depth Not available.
UV 0 out of 12
Pollen 2.90 out of 12
Air Quality Not available.
Flu Activity Not available.
METAR KEAT 170655Z AUTO 34008KT 10SM CLR 23/07 A2977 RMK AO2 SLP073 T02330072

More Conditions Fewer Conditions

Pressure 29.75 in
Visibility 10.0 miles
Clouds Clear
Dew Point 43 °F
Humidity 69%
Rainfall 0.00 in
Snow Depth Not available.
UV 0 out of 12
Pollen 2.90 out of 12
Air Quality Not available.
Flu Activity Not available.
METAR KEAT 170655Z AUTO 34008KT 10SM CLR 23/07 A2977 RMK AO2 SLP073 T02330072

More Conditions Fewer Conditions

10-Day Weather Forecast

Almanac

Astronomy

Sep. 17, 2014 Rise Set
Actual Time 6:41 AM PDT 7:09 PM PDT
Civil Twilight 6:10 AM PDT 7:39 PM PDT
Nautical Twilight 5:33 AM PDT 8:16 PM PDT
Astronomical Twilight 4:55 AM PDT 8:54 PM PDT
Moon 12:27 AM PDT 3:39 PM PDT
Length of Visible Light 13h 29m
Length of Day
12h 27m
Tomorrow will be 3m 25s shorter.
Last Quarter, 38% of the Moon is Illuminated
Today
Last Quarter
Sep 24
New
Oct 1
First Quarter
Oct 8
Full
Oct 15
Last Quarter

Today's Extremes

State Highs State Lows

Community

WunderPhotos

Upload Photos

1,753,976 photos uploaded!

Nearby

Snow Depth

Station Depth Elevation
Mount Crag 0 in 4050 ft
Grouse Camp 0 in 5380 ft
Lyman Lake 1 in 5900 ft
Bunchgrass Meadow 0 in 5000 ft
Morse Lake 0 in 5400 ft

Earthquake Activity

City Distance Mag. Time & Date
No recent earthquake activity has been reported nearby.
Minimum magnitude displayed is 2.5.

Coastal Water Temperatures

Place Temperature
No Stations Reporting

Nearby Weather Stations